sensor_id;sensor_type;location;lat;lon;timestamp;pressure;altitude;pressure_sealevel;temperature;humidity
16613;BME280;8419;52.358;9.752;2023-06-26T00:00:15;100756.00;;;31.77;36.54
16613;BME280;8419;52.358;9.752;2023-06-26T00:03:00;100749.00;;;31.61;36.85
16613;BME280;8419;52.358;9.752;2023-06-26T00:05:45;100758.00;;;31.60;36.88
16613;BME280;8419;52.358;9.752;2023-06-26T00:08:31;100759.00;;;31.57;36.96
16613;BME280;8419;52.358;9.752;2023-06-26T00:11:16;100751.00;;;31.67;36.83
16613;BME280;8419;52.358;9.752;2023-06-26T00:14:02;100752.00;;;31.53;37.04
16613;BME280;8419;52.358;9.752;2023-06-26T00:16:48;100749.00;;;31.46;37.17
16613;BME280;8419;52.358;9.752;2023-06-26T00:19:34;100750.00;;;31.42;37.29
16613;BME280;8419;52.358;9.752;2023-06-26T00:22:21;100742.00;;;31.43;37.28
16613;BME280;8419;52.358;9.752;2023-06-26T00:25:07;100739.00;;;31.40;37.31
16613;BME280;8419;52.358;9.752;2023-06-26T00:27:53;100740.00;;;31.41;37.29
16613;BME280;8419;52.358;9.752;2023-06-26T00:30:38;100738.00;;;31.29;37.52
16613;BME280;8419;52.358;9.752;2023-06-26T00:33:24;100736.00;;;31.32;37.45
16613;BME280;8419;52.358;9.752;2023-06-26T00:36:09;100733.00;;;31.26;37.57
16613;BME280;8419;52.358;9.752;2023-06-26T00:38:54;100740.00;;;31.21;37.57
16613;BME280;8419;52.358;9.752;2023-06-26T00:41:40;100733.00;;;31.18;37.64
16613;BME280;8419;52.358;9.752;2023-06-26T00:44:25;100738.00;;;31.12;37.67
16613;BME280;8419;52.358;9.752;2023-06-26T00:47:14;100741.00;;;31.07;37.66
16613;BME280;8419;52.358;9.752;2023-06-26T00:50:00;100727.00;;;31.16;37.49
16613;BME280;8419;52.358;9.752;2023-06-26T00:52:47;100741.00;;;31.14;37.43
16613;BME280;8419;52.358;9.752;2023-06-26T00:55:32;100723.00;;;31.09;37.45
16613;BME280;8419;52.358;9.752;2023-06-26T00:58:17;100727.00;;;31.13;37.30
16613;BME280;8419;52.358;9.752;2023-06-26T01:01:03;100717.00;;;31.04;37.38
16613;BME280;8419;52.358;9.752;2023-06-26T01:03:50;100708.00;;;31.06;37.23
16613;BME280;8419;52.358;9.752;2023-06-26T01:06:37;100717.00;;;31.07;37.14
16613;BME280;8419;52.358;9.752;2023-06-26T01:09:23;100720.00;;;31.10;36.93
16613;BME280;8419;52.358;9.752;2023-06-26T01:12:09;100723.00;;;31.09;36.83
16613;BME280;8419;52.358;9.752;2023-06-26T01:14:54;100717.00;;;31.01;36.92
16613;BME280;8419;52.358;9.752;2023-06-26T01:17:40;100720.00;;;30.98;36.89
16613;BME280;8419;52.358;9.752;2023-06-26T01:20:30;100714.00;;;31.04;36.72
16613;BME280;8419;52.358;9.752;2023-06-26T01:23:22;100706.00;;;31.17;36.37
16613;BME280;8419;52.358;9.752;2023-06-26T01:26:17;100696.00;;;31.11;36.45
16613;BME280;8419;52.358;9.752;2023-06-26T01:29:07;100692.00;;;31.03;36.50
16613;BME280;8419;52.358;9.752;2023-06-26T01:31:53;100700.00;;;30.99;36.47
16613;BME280;8419;52.358;9.752;2023-06-26T01:34:38;100701.00;;;30.87;36.61
16613;BME280;8419;52.358;9.752;2023-06-26T01:37:24;100702.00;;;30.97;36.43
16613;BME280;8419;52.358;9.752;2023-06-26T01:40:11;100701.00;;;30.96;36.37
16613;BME280;8419;52.358;9.752;2023-06-26T01:42:57;100690.00;;;30.76;36.65
16613;BME280;8419;52.358;9.752;2023-06-26T01:45:44;100687.00;;;30.69;36.68
16613;BME280;8419;52.358;9.752;2023-06-26T01:48:33;100688.00;;;30.81;36.46
16613;BME280;8419;52.358;9.752;2023-06-26T01:51:23;100684.00;;;30.84;36.40
16613;BME280;8419;52.358;9.752;2023-06-26T01:54:18;100682.00;;;30.63;36.76
16613;BME280;8419;52.358;9.752;2023-06-26T01:57:04;100681.00;;;30.70;36.60
16613;BME280;8419;52.358;9.752;2023-06-26T01:59:55;100670.00;;;30.64;36.64
16613;BME280;8419;52.358;9.752;2023-06-26T02:02:43;100668.00;;;30.63;36.62
16613;BME280;8419;52.358;9.752;2023-06-26T02:05:28;100676.00;;;30.66;36.49
16613;BME280;8419;52.358;9.752;2023-06-26T02:08:16;100667.00;;;30.62;36.55
16613;BME280;8419;52.358;9.752;2023-06-26T02:11:01;100657.00;;;30.66;36.46
16613;BME280;8419;52.358;9.752;2023-06-26T02:13:47;100658.00;;;30.70;36.34
16613;BME280;8419;52.358;9.752;2023-06-26T02:16:33;100649.00;;;30.63;36.43
16613;BME280;8419;52.358;9.752;2023-06-26T02:19:19;100657.00;;;30.63;36.37
16613;BME280;8419;52.358;9.752;2023-06-26T02:22:06;100651.00;;;30.51;36.50
16613;BME280;8419;52.358;9.752;2023-06-26T02:24:52;100648.00;;;30.53;36.38
16613;BME280;8419;52.358;9.752;2023-06-26T02:27:38;100651.00;;;30.67;36.03
16613;BME280;8419;52.358;9.752;2023-06-26T02:30:23;100655.00;;;30.57;36.17
16613;BME280;8419;52.358;9.752;2023-06-26T02:33:09;100654.00;;;30.44;36.36
16613;BME280;8419;52.358;9.752;2023-06-26T02:35:54;100649.00;;;30.48;36.29
16613;BME280;8419;52.358;9.752;2023-06-26T02:38:40;100640.00;;;30.42;36.29
16613;BME280;8419;52.358;9.752;2023-06-26T02:41:25;100639.00;;;30.57;36.03
16613;BME280;8419;52.358;9.752;2023-06-26T02:44:10;100635.00;;;30.38;36.26
16613;BME280;8419;52.358;9.752;2023-06-26T02:46:57;100637.00;;;30.42;36.16
16613;BME280;8419;52.358;9.752;2023-06-26T02:49:42;100635.00;;;30.43;36.13
16613;BME280;8419;52.358;9.752;2023-06-26T02:52:28;100629.00;;;30.39;36.13
16613;BME280;8419;52.358;9.752;2023-06-26T02:55:14;100625.00;;;30.37;36.19
16613;BME280;8419;52.358;9.752;2023-06-26T02:58:00;100621.00;;;30.42;36.01
16613;BME280;8419;52.358;9.752;2023-06-26T03:00:45;100624.00;;;30.39;36.09
16613;BME280;8419;52.358;9.752;2023-06-26T03:03:32;100622.00;;;30.35;36.08
16613;BME280;8419;52.358;9.752;2023-06-26T03:06:25;100615.00;;;30.37;36.08
16613;BME280;8419;52.358;9.752;2023-06-26T03:09:10;100614.00;;;30.35;36.05
16613;BME280;8419;52.358;9.752;2023-06-26T03:11:56;100617.00;;;30.35;36.03
16613;BME280;8419;52.358;9.752;2023-06-26T03:14:42;100614.00;;;30.35;36.01
16613;BME280;8419;52.358;9.752;2023-06-26T03:17:28;100616.00;;;30.25;36.10
16613;BME280;8419;52.358;9.752;2023-06-26T03:20:13;100616.00;;;30.23;36.10
16613;BME280;8419;52.358;9.752;2023-06-26T03:23:00;100606.00;;;30.38;35.79
16613;BME280;8419;52.358;9.752;2023-06-26T03:25:46;100609.00;;;30.27;35.93
16613;BME280;8419;52.358;9.752;2023-06-26T03:28:31;100606.00;;;30.22;36.03
16613;BME280;8419;52.358;9.752;2023-06-26T03:31:18;100608.00;;;30.20;36.03
16613;BME280;8419;52.358;9.752;2023-06-26T03:34:04;100602.00;;;30.23;36.01
16613;BME280;8419;52.358;9.752;2023-06-26T03:36:50;100599.00;;;30.11;36.09
16613;BME280;8419;52.358;9.752;2023-06-26T03:39:35;100609.00;;;30.17;36.07
16613;BME280;8419;52.358;9.752;2023-06-26T03:42:21;100597.00;;;30.05;36.21
16613;BME280;8419;52.358;9.752;2023-06-26T03:45:07;100598.00;;;30.07;36.24
16613;BME280;8419;52.358;9.752;2023-06-26T03:47:52;100595.00;;;29.99;36.45
16613;BME280;8419;52.358;9.752;2023-06-26T03:50:38;100597.00;;;30.00;36.45
16613;BME280;8419;52.358;9.752;2023-06-26T03:53:23;100604.00;;;30.08;36.27
16613;BME280;8419;52.358;9.752;2023-06-26T03:56:09;100597.00;;;30.05;36.32
16613;BME280;8419;52.358;9.752;2023-06-26T03:58:55;100603.00;;;30.10;36.24
16613;BME280;8419;52.358;9.752;2023-06-26T04:01:40;100596.00;;;30.06;36.31
16613;BME280;8419;52.358;9.752;2023-06-26T04:04:26;100593.00;;;30.18;36.11
16613;BME280;8419;52.358;9.752;2023-06-26T04:07:12;100596.00;;;30.09;36.25
16613;BME280;8419;52.358;9.752;2023-06-26T04:09:58;100596.00;;;30.13;36.20
16613;BME280;8419;52.358;9.752;2023-06-26T04:12:43;100596.00;;;30.14;36.19
16613;BME280;8419;52.358;9.752;2023-06-26T04:15:29;100595.00;;;30.27;35.96
16613;BME280;8419;52.358;9.752;2023-06-26T04:18:14;100585.00;;;30.34;35.91
16613;BME280;8419;52.358;9.752;2023-06-26T04:21:09;100588.00;;;30.42;35.85
16613;BME280;8419;52.358;9.752;2023-06-26T04:23:55;100576.00;;;30.62;35.56
16613;BME280;8419;52.358;9.752;2023-06-26T04:26:41;100577.00;;;30.59;35.62
16613;BME280;8419;52.358;9.752;2023-06-26T04:29:27;100583.00;;;30.49;35.71
16613;BME280;8419;52.358;9.752;2023-06-26T04:32:12;100579.00;;;30.51;35.64
16613;BME280;8419;52.358;9.752;2023-06-26T04:34:58;100579.00;;;30.62;35.52
16613;BME280;8419;52.358;9.752;2023-06-26T04:37:43;100572.00;;;30.44;35.85
16613;BME280;8419;52.358;9.752;2023-06-26T04:40:30;100573.00;;;30.48;35.85
16613;BME280;8419;52.358;9.752;2023-06-26T04:43:16;100572.00;;;30.61;35.65
16613;BME280;8419;52.358;9.752;2023-06-26T04:46:02;100561.00;;;30.66;35.60
16613;BME280;8419;52.358;9.752;2023-06-26T04:48:48;100562.00;;;30.65;35.64
16613;BME280;8419;52.358;9.752;2023-06-26T04:51:34;100566.00;;;30.82;35.43
16613;BME280;8419;52.358;9.752;2023-06-26T04:54:26;100562.00;;;30.87;35.30
16613;BME280;8419;52.358;9.752;2023-06-26T04:57:15;100555.00;;;30.57;35.87
16613;BME280;8419;52.358;9.752;2023-06-26T05:00:02;100547.00;;;30.56;35.96
16613;BME280;8419;52.358;9.752;2023-06-26T05:02:49;100551.00;;;30.55;35.97
16613;BME280;8419;52.358;9.752;2023-06-26T05:05:44;100555.00;;;30.60;35.92
16613;BME280;8419;52.358;9.752;2023-06-26T05:08:29;100551.00;;;30.58;35.98
16613;BME280;8419;52.358;9.752;2023-06-26T05:11:15;100547.00;;;30.64;35.88
16613;BME280;8419;52.358;9.752;2023-06-26T05:14:01;100549.00;;;30.62;35.96
16613;BME280;8419;52.358;9.752;2023-06-26T05:16:47;100544.00;;;30.63;36.03
16613;BME280;8419;52.358;9.752;2023-06-26T05:19:33;100546.00;;;30.62;36.09
16613;BME280;8419;52.358;9.752;2023-06-26T05:22:20;100541.00;;;30.62;36.18
16613;BME280;8419;52.358;9.752;2023-06-26T05:25:09;100541.00;;;30.70;36.09
16613;BME280;8419;52.358;9.752;2023-06-26T05:27:56;100531.00;;;30.85;35.92
16613;BME280;8419;52.358;9.752;2023-06-26T05:30:42;100537.00;;;30.79;36.06
16613;BME280;8419;52.358;9.752;2023-06-26T05:33:29;100531.00;;;30.88;35.91
16613;BME280;8419;52.358;9.752;2023-06-26T05:36:17;100532.00;;;31.02;35.72
16613;BME280;8419;52.358;9.752;2023-06-26T05:39:04;100533.00;;;31.18;35.55
16613;BME280;8419;52.358;9.752;2023-06-26T05:41:53;100530.00;;;31.46;35.10
16613;BME280;8419;52.358;9.752;2023-06-26T05:44:39;100524.00;;;31.57;34.94
16613;BME280;8419;52.358;9.752;2023-06-26T05:47:24;100523.00;;;31.56;34.95
16613;BME280;8419;52.358;9.752;2023-06-26T05:50:12;100521.00;;;31.65;34.83
16613;BME280;8419;52.358;9.752;2023-06-26T05:53:00;100522.00;;;31.73;34.76
16613;BME280;8419;52.358;9.752;2023-06-26T05:55:49;100522.00;;;31.79;34.67
16613;BME280;8419;52.358;9.752;2023-06-26T05:58:35;100525.00;;;31.87;34.48
16613;BME280;8419;52.358;9.752;2023-06-26T06:01:22;100530.00;;;31.97;34.31
16613;BME280;8419;52.358;9.752;2023-06-26T06:04:10;100521.00;;;31.98;34.29
16613;BME280;8419;52.358;9.752;2023-06-26T06:06:57;100532.00;;;31.82;34.60
16613;BME280;8419;52.358;9.752;2023-06-26T06:09:42;100525.00;;;31.78;34.68
16613;BME280;8419;52.358;9.752;2023-06-26T06:12:28;100528.00;;;31.89;34.43
16613;BME280;8419;52.358;9.752;2023-06-26T06:15:14;100533.00;;;31.73;34.76
16613;BME280;8419;52.358;9.752;2023-06-26T06:17:59;100524.00;;;31.64;34.96
16613;BME280;8419;52.358;9.752;2023-06-26T06:20:48;100515.00;;;31.63;34.97
16613;BME280;8419;52.358;9.752;2023-06-26T06:23:34;100519.00;;;31.65;35.01
16613;BME280;8419;52.358;9.752;2023-06-26T06:26:19;100516.00;;;31.67;34.98
16613;BME280;8419;52.358;9.752;2023-06-26T06:29:06;100517.00;;;31.73;34.84
16613;BME280;8419;52.358;9.752;2023-06-26T06:31:51;100516.00;;;31.90;34.52
16613;BME280;8419;52.358;9.752;2023-06-26T06:34:37;100530.00;;;31.81;34.79
16613;BME280;8419;52.358;9.752;2023-06-26T06:37:25;100523.00;;;31.86;34.78
16613;BME280;8419;52.358;9.752;2023-06-26T06:40:12;100518.00;;;31.96;34.70
16613;BME280;8419;52.358;9.752;2023-06-26T06:42:58;100516.00;;;32.05;34.66
16613;BME280;8419;52.358;9.752;2023-06-26T06:45:44;100528.00;;;32.02;34.76
16613;BME280;8419;52.358;9.752;2023-06-26T06:48:30;100521.00;;;32.18;34.61
16613;BME280;8419;52.358;9.752;2023-06-26T06:51:15;100519.00;;;32.34;34.40
16613;BME280;8419;52.358;9.752;2023-06-26T06:54:01;100526.00;;;32.31;34.44
16613;BME280;8419;52.358;9.752;2023-06-26T06:56:46;100528.00;;;32.17;34.81
16613;BME280;8419;52.358;9.752;2023-06-26T06:59:31;100523.00;;;32.24;34.81
16613;BME280;8419;52.358;9.752;2023-06-26T07:02:17;100520.00;;;32.27;34.87
16613;BME280;8419;52.358;9.752;2023-06-26T07:05:04;100518.00;;;32.47;34.68
16613;BME280;8419;52.358;9.752;2023-06-26T07:07:49;100525.00;;;32.77;34.23
16613;BME280;8419;52.358;9.752;2023-06-26T07:10:35;100530.00;;;32.60;34.57
16613;BME280;8419;52.358;9.752;2023-06-26T07:13:22;100530.00;;;32.60;34.63
16613;BME280;8419;52.358;9.752;2023-06-26T07:16:07;100519.00;;;32.68;34.44
16613;BME280;8419;52.358;9.752;2023-06-26T07:18:56;100527.00;;;32.68;34.44
16613;BME280;8419;52.358;9.752;2023-06-26T07:21:42;100522.00;;;32.77;34.26
16613;BME280;8419;52.358;9.752;2023-06-26T07:24:29;100525.00;;;32.86;34.19
16613;BME280;8419;52.358;9.752;2023-06-26T07:27:16;100521.00;;;32.96;34.17
16613;BME280;8419;52.358;9.752;2023-06-26T07:30:03;100519.00;;;33.08;33.82
16613;BME280;8419;52.358;9.752;2023-06-26T07:32:48;100510.00;;;33.14;33.29
16613;BME280;8419;52.358;9.752;2023-06-26T07:35:34;100525.00;;;33.21;32.97
16613;BME280;8419;52.358;9.752;2023-06-26T07:38:20;100516.00;;;33.22;32.52
16613;BME280;8419;52.358;9.752;2023-06-26T07:41:05;100515.00;;;33.50;32.04
16613;BME280;8419;52.358;9.752;2023-06-26T07:43:50;100524.00;;;33.38;32.05
16613;BME280;8419;52.358;9.752;2023-06-26T07:46:36;100527.00;;;33.44;31.95
16613;BME280;8419;52.358;9.752;2023-06-26T07:49:22;100523.00;;;33.55;31.76
16613;BME280;8419;52.358;9.752;2023-06-26T07:52:08;100520.00;;;33.57;31.66
16613;BME280;8419;52.358;9.752;2023-06-26T07:54:55;100523.00;;;33.82;31.28
16613;BME280;8419;52.358;9.752;2023-06-26T07:57:41;100531.00;;;33.92;31.12
16613;BME280;8419;52.358;9.752;2023-06-26T08:00:26;100534.00;;;33.95;31.02
16613;BME280;8419;52.358;9.752;2023-06-26T08:03:12;100529.00;;;34.22;30.70
16613;BME280;8419;52.358;9.752;2023-06-26T08:05:58;100524.00;;;34.19;30.75
16613;BME280;8419;52.358;9.752;2023-06-26T08:08:43;100529.00;;;34.25;30.78
16613;BME280;8419;52.358;9.752;2023-06-26T08:11:29;100526.00;;;34.14;30.98
16613;BME280;8419;52.358;9.752;2023-06-26T08:14:15;100527.00;;;34.20;30.98
16613;BME280;8419;52.358;9.752;2023-06-26T08:17:01;100527.00;;;34.24;31.08
16613;BME280;8419;52.358;9.752;2023-06-26T08:19:48;100525.00;;;34.30;31.02
16613;BME280;8419;52.358;9.752;2023-06-26T08:22:34;100519.00;;;34.39;30.93
16613;BME280;8419;52.358;9.752;2023-06-26T08:25:22;100515.00;;;34.38;30.92
16613;BME280;8419;52.358;9.752;2023-06-26T08:28:08;100514.00;;;34.42;31.00
16613;BME280;8419;52.358;9.752;2023-06-26T08:30:54;100508.00;;;34.59;30.77
16613;BME280;8419;52.358;9.752;2023-06-26T08:33:39;100507.00;;;34.50;30.95
16613;BME280;8419;52.358;9.752;2023-06-26T08:36:24;100504.00;;;34.62;30.83
16613;BME280;8419;52.358;9.752;2023-06-26T08:39:09;100498.00;;;34.71;30.74
16613;BME280;8419;52.358;9.752;2023-06-26T08:41:55;100497.00;;;34.69;30.87
16613;BME280;8419;52.358;9.752;2023-06-26T08:44:40;100498.00;;;34.79;30.78
16613;BME280;8419;52.358;9.752;2023-06-26T08:47:29;100498.00;;;34.90;30.68
16613;BME280;8419;52.358;9.752;2023-06-26T08:50:17;100508.00;;;35.07;30.40
16613;BME280;8419;52.358;9.752;2023-06-26T08:53:09;100520.00;;;35.43;30.03
16613;BME280;8419;52.358;9.752;2023-06-26T08:56:00;100535.00;;;35.52;29.75
16613;BME280;8419;52.358;9.752;2023-06-26T08:58:46;100537.00;;;35.43;29.85
16613;BME280;8419;52.358;9.752;2023-06-26T09:01:32;100547.00;;;35.38;29.99
16613;BME280;8419;52.358;9.752;2023-06-26T09:04:20;100547.00;;;35.46;30.04
16613;BME280;8419;52.358;9.752;2023-06-26T09:07:07;100555.00;;;35.41;29.98
16613;BME280;8419;52.358;9.752;2023-06-26T09:09:52;100553.00;;;35.46;29.72
16613;BME280;8419;52.358;9.752;2023-06-26T09:12:38;100565.00;;;35.39;29.71
16613;BME280;8419;52.358;9.752;2023-06-26T09:15:25;100554.00;;;35.35;29.67
16613;BME280;8419;52.358;9.752;2023-06-26T09:18:11;100558.00;;;35.36;29.74
16613;BME280;8419;52.358;9.752;2023-06-26T09:20:56;100555.00;;;35.41;29.85
16613;BME280;8419;52.358;9.752;2023-06-26T09:23:42;100563.00;;;35.46;29.84
16613;BME280;8419;52.358;9.752;2023-06-26T09:26:27;100555.00;;;35.41;29.77
16613;BME280;8419;52.358;9.752;2023-06-26T09:29:16;100561.00;;;35.54;29.56
16613;BME280;8419;52.358;9.752;2023-06-26T09:32:03;100567.00;;;35.56;29.26
16613;BME280;8419;52.358;9.752;2023-06-26T09:34:52;100559.00;;;35.50;29.14
16613;BME280;8419;52.358;9.752;2023-06-26T09:37:40;100572.00;;;35.61;28.98
16613;BME280;8419;52.358;9.752;2023-06-26T09:40:27;100580.00;;;35.58;29.10
16613;BME280;8419;52.358;9.752;2023-06-26T09:43:14;100597.00;;;35.67;29.10
16613;BME280;8419;52.358;9.752;2023-06-26T09:46:00;100594.00;;;35.51;29.53
16613;BME280;8419;52.358;9.752;2023-06-26T09:48:46;100596.00;;;35.49;29.67
16613;BME280;8419;52.358;9.752;2023-06-26T09:51:33;100596.00;;;35.59;29.60
16613;BME280;8419;52.358;9.752;2023-06-26T09:54:22;100607.00;;;35.52;29.76
16613;BME280;8419;52.358;9.752;2023-06-26T09:57:09;100619.00;;;35.38;30.01
16613;BME280;8419;52.358;9.752;2023-06-26T09:59:55;100630.00;;;35.36;29.92
16613;BME280;8419;52.358;9.752;2023-06-26T10:02:40;100628.00;;;35.18;30.02
16613;BME280;8419;52.358;9.752;2023-06-26T10:05:27;100634.00;;;35.05;30.15
16613;BME280;8419;52.358;9.752;2023-06-26T10:08:19;100629.00;;;34.93;30.41
16613;BME280;8419;52.358;9.752;2023-06-26T10:11:06;100621.00;;;34.94;30.56
16613;BME280;8419;52.358;9.752;2023-06-26T10:13:54;100634.00;;;34.89;30.79
16613;BME280;8419;52.358;9.752;2023-06-26T10:16:42;100638.00;;;34.79;31.11
16613;BME280;8419;52.358;9.752;2023-06-26T10:19:30;100632.00;;;34.93;31.13
16613;BME280;8419;52.358;9.752;2023-06-26T10:22:17;100644.00;;;34.83;31.58
16613;BME280;8419;52.358;9.752;2023-06-26T10:25:07;100658.00;;;34.45;32.44
16613;BME280;8419;52.358;9.752;2023-06-26T10:27:57;100673.00;;;34.10;33.14
16613;BME280;8419;52.358;9.752;2023-06-26T10:30:44;100666.00;;;33.88;33.55
16613;BME280;8419;52.358;9.752;2023-06-26T10:33:33;100689.00;;;33.86;33.16
16613;BME280;8419;52.358;9.752;2023-06-26T10:36:29;100693.00;;;33.59;33.02
16613;BME280;8419;52.358;9.752;2023-06-26T10:39:14;100704.00;;;32.73;35.05
16613;BME280;8419;52.358;9.752;2023-06-26T10:42:10;100715.00;;;31.27;37.86
16613;BME280;8419;52.358;9.752;2023-06-26T10:45:16;100710.00;;;30.92;37.89
16613;BME280;8419;52.358;9.752;2023-06-26T10:48:04;100713.00;;;30.34;38.58
16613;BME280;8419;52.358;9.752;2023-06-26T10:50:50;100718.00;;;30.04;38.97
16613;BME280;8419;52.358;9.752;2023-06-26T10:53:38;100721.00;;;30.04;38.92
16613;BME280;8419;52.358;9.752;2023-06-26T10:56:42;100720.00;;;30.20;38.92
16613;BME280;8419;52.358;9.752;2023-06-26T10:59:29;100706.00;;;30.66;38.54
16613;BME280;8419;52.358;9.752;2023-06-26T11:02:16;100699.00;;;30.89;40.02
16613;BME280;8419;52.358;9.752;2023-06-26T11:05:06;100708.00;;;31.17;40.61
16613;BME280;8419;52.358;9.752;2023-06-26T11:08:07;100709.00;;;31.17;41.15
16613;BME280;8419;52.358;9.752;2023-06-26T11:11:00;100710.00;;;31.31;41.14
16613;BME280;8419;52.358;9.752;2023-06-26T11:13:47;100705.00;;;31.44;41.05
16613;BME280;8419;52.358;9.752;2023-06-26T11:16:32;100701.00;;;31.83;40.38
16613;BME280;8419;52.358;9.752;2023-06-26T11:19:19;100706.00;;;31.75;40.26
16613;BME280;8419;52.358;9.752;2023-06-26T11:22:05;100716.00;;;31.81;39.80
16613;BME280;8419;52.358;9.752;2023-06-26T11:24:53;100722.00;;;31.89;39.41
16613;BME280;8419;52.358;9.752;2023-06-26T11:27:39;100717.00;;;32.03;39.04
16613;BME280;8419;52.358;9.752;2023-06-26T11:30:25;100711.00;;;32.24;38.72
16613;BME280;8419;52.358;9.752;2023-06-26T11:33:11;100712.00;;;32.16;38.64
16613;BME280;8419;52.358;9.752;2023-06-26T11:36:08;100713.00;;;32.12;38.34
16613;BME280;8419;52.358;9.752;2023-06-26T11:38:54;100721.00;;;32.14;38.37
16613;BME280;8419;52.358;9.752;2023-06-26T11:41:41;100722.00;;;32.13;38.31
16613;BME280;8419;52.358;9.752;2023-06-26T11:44:30;100735.00;;;32.38;37.98
16613;BME280;8419;52.358;9.752;2023-06-26T11:47:17;100727.00;;;32.98;36.99
16613;BME280;8419;52.358;9.752;2023-06-26T11:50:05;100730.00;;;33.33;36.34
16613;BME280;8419;52.358;9.752;2023-06-26T11:52:54;100732.00;;;33.65;35.65
16613;BME280;8419;52.358;9.752;2023-06-26T11:55:44;100730.00;;;33.55;35.07
16613;BME280;8419;52.358;9.752;2023-06-26T11:58:29;100730.00;;;33.43;35.02
16613;BME280;8419;52.358;9.752;2023-06-26T12:01:16;100748.00;;;33.44;34.53
16613;BME280;8419;52.358;9.752;2023-06-26T12:04:03;100731.00;;;33.32;34.26
16613;BME280;8419;52.358;9.752;2023-06-26T12:06:54;100744.00;;;33.23;33.44
16613;BME280;8419;52.358;9.752;2023-06-26T12:09:43;100748.00;;;33.22;32.83
16613;BME280;8419;52.358;9.752;2023-06-26T12:12:35;100742.00;;;33.20;32.05
16613;BME280;8419;52.358;9.752;2023-06-26T12:15:22;100750.00;;;33.48;31.33
16613;BME280;8419;52.358;9.752;2023-06-26T12:18:10;100766.00;;;33.73;30.69
16613;BME280;8419;52.358;9.752;2023-06-26T12:20:58;100761.00;;;33.80;30.30
16613;BME280;8419;52.358;9.752;2023-06-26T12:23:44;100764.00;;;34.15;30.01
16613;BME280;8419;52.358;9.752;2023-06-26T12:26:30;100759.00;;;34.22;29.89
16613;BME280;8419;52.358;9.752;2023-06-26T12:29:21;100760.00;;;34.21;29.84
16613;BME280;8419;52.358;9.752;2023-06-26T12:32:09;100761.00;;;34.58;29.23
16613;BME280;8419;52.358;9.752;2023-06-26T12:34:57;100757.00;;;35.26;28.54
16613;BME280;8419;52.358;9.752;2023-06-26T12:37:46;100751.00;;;35.53;28.11
16613;BME280;8419;52.358;9.752;2023-06-26T12:40:31;100763.00;;;36.17;27.37
16613;BME280;8419;52.358;9.752;2023-06-26T12:43:23;100758.00;;;36.21;27.34
16613;BME280;8419;52.358;9.752;2023-06-26T12:46:09;100757.00;;;36.42;27.16
16613;BME280;8419;52.358;9.752;2023-06-26T12:48:55;100764.00;;;36.14;27.44
16613;BME280;8419;52.358;9.752;2023-06-26T12:51:40;100767.00;;;36.18;27.18
16613;BME280;8419;52.358;9.752;2023-06-26T12:54:25;100770.00;;;36.10;26.81
16613;BME280;8419;52.358;9.752;2023-06-26T12:57:12;100760.00;;;36.25;26.10
16613;BME280;8419;52.358;9.752;2023-06-26T12:59:59;100757.00;;;36.87;25.44
16613;BME280;8419;52.358;9.752;2023-06-26T13:02:46;100765.00;;;37.83;24.64
16613;BME280;8419;52.358;9.752;2023-06-26T13:05:31;100748.00;;;37.50;24.12
16613;BME280;8419;52.358;9.752;2023-06-26T13:08:17;100756.00;;;36.99;24.58
16613;BME280;8419;52.358;9.752;2023-06-26T13:11:03;100762.00;;;37.52;24.00
16613;BME280;8419;52.358;9.752;2023-06-26T13:13:49;100759.00;;;38.40;23.27
16613;BME280;8419;52.358;9.752;2023-06-26T13:16:35;100751.00;;;38.27;23.22
16613;BME280;8419;52.358;9.752;2023-06-26T13:19:20;100759.00;;;37.98;23.15
16613;BME280;8419;52.358;9.752;2023-06-26T13:22:06;100742.00;;;38.03;22.60
16613;BME280;8419;52.358;9.752;2023-06-26T13:24:52;100744.00;;;38.16;22.38
16613;BME280;8419;52.358;9.752;2023-06-26T13:27:38;100755.00;;;38.21;22.53
16613;BME280;8419;52.358;9.752;2023-06-26T13:30:23;100750.00;;;37.73;22.87
16613;BME280;8419;52.358;9.752;2023-06-26T13:33:11;100757.00;;;37.00;23.10
16613;BME280;8419;52.358;9.752;2023-06-26T13:35:57;100754.00;;;36.41;22.54
16613;BME280;8419;52.358;9.752;2023-06-26T13:38:43;100747.00;;;35.74;22.65
16613;BME280;8419;52.358;9.752;2023-06-26T13:41:29;100752.00;;;35.60;22.80
16613;BME280;8419;52.358;9.752;2023-06-26T13:44:14;100755.00;;;36.04;22.09
16613;BME280;8419;52.358;9.752;2023-06-26T13:47:01;100752.00;;;36.89;21.38
16613;BME280;8419;52.358;9.752;2023-06-26T13:49:50;100745.00;;;38.12;20.20
16613;BME280;8419;52.358;9.752;2023-06-26T13:52:36;100741.00;;;38.92;19.46
16613;BME280;8419;52.358;9.752;2023-06-26T13:55:24;100759.00;;;39.65;19.04
16613;BME280;8419;52.358;9.752;2023-06-26T13:58:12;100750.00;;;40.44;18.92
16613;BME280;8419;52.358;9.752;2023-06-26T14:00:58;100752.00;;;40.24;19.23
16613;BME280;8419;52.358;9.752;2023-06-26T14:03:44;100755.00;;;40.42;19.40
16613;BME280;8419;52.358;9.752;2023-06-26T14:06:29;100762.00;;;41.22;18.33
16613;BME280;8419;52.358;9.752;2023-06-26T14:09:17;100763.00;;;41.10;17.96
16613;BME280;8419;52.358;9.752;2023-06-26T14:12:08;100751.00;;;39.82;18.49
16613;BME280;8419;52.358;9.752;2023-06-26T14:14:53;100755.00;;;39.57;18.80
16613;BME280;8419;52.358;9.752;2023-06-26T14:17:39;100739.00;;;39.34;18.84
16613;BME280;8419;52.358;9.752;2023-06-26T14:20:25;100740.00;;;38.42;19.44
16613;BME280;8419;52.358;9.752;2023-06-26T14:23:14;100752.00;;;38.61;19.44
16613;BME280;8419;52.358;9.752;2023-06-26T14:26:00;100744.00;;;38.67;19.18
16613;BME280;8419;52.358;9.752;2023-06-26T14:28:46;100746.00;;;38.24;19.44
16613;BME280;8419;52.358;9.752;2023-06-26T14:31:31;100749.00;;;38.48;19.23
16613;BME280;8419;52.358;9.752;2023-06-26T14:34:17;100745.00;;;38.00;19.40
16613;BME280;8419;52.358;9.752;2023-06-26T14:37:03;100741.00;;;37.88;19.69
16613;BME280;8419;52.358;9.752;2023-06-26T14:39:48;100750.00;;;37.49;20.22
16613;BME280;8419;52.358;9.752;2023-06-26T14:42:34;100754.00;;;37.23;20.64